Time;durP1;ratioP1;P1;durP2;ratioP2;P2;SDS_P1;SDS_P2;PMS_P1;PMS_P2;Temp;Humidity;BMP_temperature;BMP_pressure;BME280_temperature;BME280_humidity;BME280_pressure;Samples;Min_cycle;Max_cycle;Signal;HPM_P1;HPM_P2
2024/04/05 00:01:13;;;;;;;2.30;1.73;;;;;;;12.73;100.00;154629.00;5031364;28;20260;-93
2024/04/05 00:03:39;;;;;;;3.90;1.90;;;;;;;12.73;100.00;154630.28;5034861;28;20448;-93
2024/04/05 00:06:05;;;;;;;2.43;1.67;;;;;;;12.74;100.00;154631.56;5042726;28;20233;-93
2024/04/05 00:08:33;;;;;;;3.57;2.30;;;;;;;12.76;100.00;154638.06;5037314;28;21057;-93
2024/04/05 00:10:58;;;;;;;2.97;1.60;;;;;;;12.75;100.00;154634.19;5032512;28;20264;-94
2024/04/05 00:13:25;;;;;;;2.13;1.80;;;;;;;12.74;100.00;154632.88;5030758;28;20448;-93
2024/04/05 00:15:52;;;;;;;4.37;1.80;;;;;;;12.74;100.00;154632.88;5032007;28;20272;-93
2024/04/05 00:18:20;;;;;;;4.40;2.43;;;;;;;12.77;100.00;154640.66;5031929;28;20475;-95
2024/04/05 00:20:45;;;;;;;2.77;1.90;;;;;;;12.75;100.00;154635.50;5013802;28;20490;-94
2024/04/05 00:23:12;;;;;;;5.07;1.93;;;;;;;12.75;100.00;154635.50;5031604;28;20444;-93
2024/04/05 00:25:37;;;;;;;2.70;2.20;;;;;;;12.78;100.00;154641.97;5031935;28;20281;-94
2024/04/05 00:28:04;;;;;;;3.10;1.80;;;;;;;12.79;100.00;154644.53;5023897;28;20472;-94
2024/04/05 00:30:30;;;;;;;2.10;1.90;;;;;;;12.78;100.00;154641.97;5011425;28;20235;-93
2024/04/05 00:32:58;;;;;;;2.67;2.07;;;;;;;12.77;100.00;154639.38;5010554;28;20507;-94
2024/04/05 00:35:23;;;;;;;3.17;1.80;;;;;;;12.78;100.00;154641.97;5010205;28;20203;-93
2024/04/05 00:37:50;;;;;;;2.23;2.03;;;;;;;12.78;100.00;154641.97;5012186;28;20439;-93
2024/04/05 00:40:16;;;;;;;4.47;2.40;;;;;;;12.78;100.00;154641.97;5025462;28;20214;-95
2024/04/05 00:42:42;;;;;;;3.07;1.80;;;;;;;12.78;100.00;154641.97;5031267;28;20432;-94
2024/04/05 00:45:08;;;;;;;2.80;2.03;;;;;;;12.78;100.00;154641.97;5031652;28;20213;-93
2024/04/05 00:47:35;;;;;;;2.60;2.30;;;;;;;12.77;100.00;154640.66;5030711;28;20479;-93
2024/04/05 00:50:05;;;;;;;2.97;1.80;;;;;;;12.76;100.00;154638.06;5030944;28;20202;-96
2024/04/05 00:52:31;;;;;;;3.10;2.13;;;;;;;12.78;100.00;154641.97;5030207;28;20451;-95
2024/04/05 00:54:57;;;;;;;2.80;1.83;;;;;;;12.76;100.00;154636.81;5031074;28;20546;-93
2024/04/05 00:57:24;;;;;;;2.20;1.80;;;;;;;12.76;100.00;154638.06;5030930;28;20434;-94
2024/04/05 00:59:50;;;;;;;2.70;1.90;;;;;;;12.77;100.00;154639.38;5028977;28;20207;-94
2024/04/05 01:02:16;;;;;;;3.30;2.00;;;;;;;12.77;100.00;154639.38;5013539;28;20479;-95
2024/04/05 01:04:42;;;;;;;3.80;2.03;;;;;;;12.76;100.00;154638.06;5011073;28;20207;-95
2024/04/05 01:07:10;;;;;;;4.37;2.60;;;;;;;12.76;100.00;154636.81;5010985;28;20463;-93
2024/04/05 01:09:36;;;;;;;3.00;2.07;;;;;;;12.76;100.00;154636.81;5011197;28;20638;-93
2024/04/05 01:12:03;;;;;;;3.30;2.60;;;;;;;12.74;100.00;154632.88;5011198;28;20437;-95
2024/04/05 01:14:29;;;;;;;3.17;2.00;;;;;;;12.75;100.00;154634.19;5012422;28;20218;-94
2024/04/05 01:16:55;;;;;;;3.57;2.33;;;;;;;12.74;100.00;154631.56;5012782;28;20451;-94
2024/04/05 01:19:22;;;;;;;5.70;2.10;;;;;;;12.73;100.00;154630.28;5030152;28;20210;-94
2024/04/05 01:21:50;;;;;;;4.10;2.00;;;;;;;12.74;100.00;154631.56;5029332;28;20455;-93
2024/04/05 01:24:17;;;;;;;4.30;2.20;;;;;;;12.75;100.00;154634.19;5031144;28;20451;-93
2024/04/05 01:26:44;;;;;;;2.63;2.30;;;;;;;12.75;100.00;154634.19;5029315;28;20918;-93
2024/04/05 01:29:09;;;;;;;2.90;1.87;;;;;;;12.75;100.00;154634.19;5029303;28;20443;-93
2024/04/05 01:31:36;;;;;;;3.20;2.20;;;;;;;12.74;100.00;154632.88;5030378;28;20468;-92
2024/04/05 01:34:01;;;;;;;2.43;1.97;;;;;;;12.75;100.00;154634.19;5018386;28;20332;-94
2024/04/05 01:36:28;;;;;;;3.60;1.90;;;;;;;12.75;100.00;154634.19;5036886;28;20447;-94
2024/04/05 01:38:53;;;;;;;3.17;2.43;;;;;;;12.73;100.00;154629.00;5031367;28;20206;-95
2024/04/05 01:41:22;;;;;;;2.07;1.87;;;;;;;12.73;100.00;154629.00;5030217;28;20913;-94
2024/04/05 01:43:48;;;;;;;2.97;2.00;;;;;;;12.72;100.00;154626.41;5037231;28;20199;-94
2024/04/05 01:46:14;;;;;;;5.20;2.40;;;;;;;12.70;100.00;154622.53;5048831;28;20455;-95
2024/04/05 01:48:40;;;;;;;4.43;2.07;;;;;;;12.69;100.00;154618.63;5040490;28;20602;-95
2024/04/05 01:51:06;;;;;;;3.30;2.17;;;;;;;12.68;100.00;154617.31;5034575;28;20439;-95
2024/04/05 01:53:32;;;;;;;2.50;2.30;;;;;;;12.67;100.00;154613.44;5017186;28;20245;-93
2024/04/05 01:56:01;;;;;;;2.60;1.80;;;;;;;12.65;100.00;154609.56;5034004;28;20443;-94
2024/04/05 01:58:28;;;;;;;3.90;2.00;;;;;;;12.63;100.00;154603.03;5033396;28;20203;-93
2024/04/05 02:01:00;;;;;;;2.60;1.90;;;;;;;12.63;100.00;154603.03;5033440;28;20443;-94
2024/04/05 02:03:28;;;;;;;2.57;2.17;;;;;;;12.59;100.00;154594.00;5033305;28;20474;-95
2024/04/05 02:05:55;;;;;;;2.47;2.17;;;;;;;12.58;100.00;154591.38;5034452;28;20436;-93
2024/04/05 02:08:20;;;;;;;3.00;2.10;;;;;;;12.57;100.00;154588.81;5032913;28;20525;-93
2024/04/05 02:10:47;;;;;;;3.10;2.40;;;;;;;12.57;100.00;154587.50;5034442;28;20440;-95
2024/04/05 02:13:12;;;;;;;2.43;1.83;;;;;;;12.54;100.00;154581.03;5034469;28;20284;-95
2024/04/05 02:15:45;;;;;;;2.73;2.10;;;;;;;12.56;100.00;154584.91;5034359;28;20432;-94
2024/04/05 02:18:10;;;;;;;2.93;2.40;;;;;;;12.55;100.00;154582.34;5033215;28;20305;-94
2024/04/05 02:20:39;;;;;;;3.67;2.20;;;;;;;12.54;100.00;154579.72;5033661;28;20438;-94
2024/04/05 02:23:05;;;;;;;2.10;1.90;;;;;;;12.54;100.00;154579.72;5016942;28;20206;-93
2024/04/05 02:25:31;;;;;;;3.43;2.40;;;;;;;12.52;100.00;154575.78;5013119;28;20872;-94
2024/04/05 02:27:57;;;;;;;2.13;1.70;;;;;;;12.51;100.00;154571.94;5033049;28;20483;-93
2024/04/05 02:30:24;;;;;;;3.50;2.40;;;;;;;12.52;100.00;154574.53;5032909;28;20479;-92
2024/04/05 02:32:51;;;;;;;2.10;1.90;;;;;;;12.51;100.00;154571.94;5034997;28;20439;-96
2024/04/05 02:35:17;;;;;;;2.90;2.50;;;;;;;12.51;100.00;154571.94;5034546;28;20439;-95
2024/04/05 02:37:43;;;;;;;4.03;2.70;;;;;;;12.53;100.00;154577.09;5034134;28;20424;-94
2024/04/05 02:40:10;;;;;;;3.80;3.13;;;;;;;12.52;100.00;154575.78;5034621;28;20475;-94
2024/04/05 02:42:36;;;;;;;3.80;2.40;;;;;;;12.50;100.00;154570.63;5034044;28;20214;-93
2024/04/05 02:45:02;;;;;;;3.00;2.30;;;;;;;12.49;100.00;154566.75;5033926;28;20459;-94
2024/04/05 02:47:29;;;;;;;7.37;2.60;;;;;;;12.50;100.00;154569.31;5016239;28;20227;-95
2024/04/05 02:49:57;;;;;;;2.57;2.10;;;;;;;12.48;100.00;154565.44;5034636;28;20440;-95
2024/04/05 02:52:23;;;;;;;2.10;1.80;;;;;;;12.50;100.00;154569.31;5013743;28;20440;-93
2024/04/05 02:54:49;;;;;;;4.90;2.83;;;;;;;12.51;100.00;154571.94;5017804;28;20814;-94
2024/04/05 02:57:14;;;;;;;3.60;2.77;;;;;;;12.51;100.00;154571.94;5013730;28;21040;-94
2024/04/05 02:59:41;;;;;;;4.10;2.80;;;;;;;12.50;100.00;154569.31;5015099;28;20440;-94
2024/04/05 03:02:07;;;;;;;4.47;2.90;;;;;;;12.49;100.00;154566.75;5017987;28;20622;-93
2024/04/05 03:04:33;;;;;;;3.77;2.63;;;;;;;12.47;100.00;154561.59;5016056;28;20478;-93
2024/04/05 03:07:00;;;;;;;3.80;2.33;;;;;;;12.47;100.00;154562.84;5032005;28;20199;-93
2024/04/05 03:09:27;;;;;;;4.47;2.30;;;;;;;12.45;100.00;154556.34;5033946;28;20506;-93
2024/04/05 03:11:53;;;;;;;3.40;2.50;;;;;;;12.46;100.00;154558.97;5033000;28;20447;-93
2024/04/05 03:14:20;;;;;;;3.33;2.80;;;;;;;12.46;100.00;154558.97;5034049;28;20497;-94
2024/04/05 03:16:45;;;;;;;5.47;3.27;;;;;;;12.45;100.00;154557.66;5032303;28;20202;-92
2024/04/05 03:19:12;;;;;;;4.03;2.53;;;;;;;12.46;100.00;154558.97;5033597;28;20545;-93
2024/04/05 03:21:37;;;;;;;3.03;2.50;;;;;;;12.49;100.00;154566.75;5016730;28;21081;-94
2024/04/05 03:24:06;;;;;;;3.03;2.23;;;;;;;12.49;100.00;154568.06;5026422;28;20493;-92
2024/04/05 03:26:33;;;;;;;4.10;2.80;;;;;;;12.48;100.00;154565.44;5031829;28;20206;-94
2024/04/05 03:28:59;;;;;;;3.93;2.47;;;;;;;12.50;100.00;154569.31;5032976;28;20483;-93
2024/04/05 03:31:25;;;;;;;2.97;2.20;;;;;;;12.50;100.00;154569.31;5012789;28;20481;-94
2024/04/05 03:33:51;;;;;;;3.53;2.20;;;;;;;12.47;100.00;154561.59;5028415;28;20465;-94
2024/04/05 03:36:17;;;;;;;2.97;2.20;;;;;;;12.45;100.00;154557.66;5028067;28;20203;-95
2024/04/05 03:38:44;;;;;;;3.20;2.60;;;;;;;12.43;100.00;154552.50;5011369;28;20858;-95
2024/04/05 03:41:11;;;;;;;2.57;2.37;;;;;;;12.43;100.00;154551.19;5011898;28;20207;-96
2024/04/05 03:43:37;;;;;;;2.90;2.43;;;;;;;12.44;100.00;154555.09;5007868;28;20507;-95
2024/04/05 03:46:04;;;;;;;5.00;2.40;;;;;;;12.43;100.00;154551.19;5008324;28;20434;-94
2024/04/05 03:48:29;;;;;;;2.80;2.33;;;;;;;12.41;100.00;154546.00;4993555;28;20216;-95
2024/04/05 03:50:56;;;;;;;3.07;2.77;;;;;;;12.41;100.00;154546.00;4993884;28;20422;-94
2024/04/05 03:53:21;;;;;;;3.73;2.50;;;;;;;12.40;100.00;154543.41;4995696;28;20204;-94
2024/04/05 03:55:48;;;;;;;6.43;2.50;;;;;;;12.42;100.00;154549.88;5012731;28;20924;-94
2024/04/05 03:58:15;;;;;;;3.60;2.90;;;;;;;12.41;100.00;154547.31;5012542;28;20200;-94
2024/04/05 04:00:41;;;;;;;3.73;2.50;;;;;;;12.37;100.00;154536.91;5013035;28;20433;-93
2024/04/05 04:03:07;;;;;;;2.47;1.83;;;;;;;12.39;100.00;154540.84;4995131;28;20445;-93
2024/04/05 04:05:33;;;;;;;4.30;2.60;;;;;;;12.40;100.00;154543.41;5011870;28;20472;-93
2024/04/05 04:08:00;;;;;;;2.43;2.17;;;;;;;12.40;100.00;154543.41;5027442;28;20324;-95
2024/04/05 04:10:28;;;;;;;5.20;2.70;;;;;;;12.39;100.00;154542.09;5013031;28;21011;-94
2024/04/05 04:12:53;;;;;;;3.47;2.53;;;;;;;12.38;100.00;154538.22;5027316;28;20492;-94
2024/04/05 04:15:21;;;;;;;4.77;2.40;;;;;;;12.37;100.00;154536.91;5012295;28;20480;-94
2024/04/05 04:17:47;;;;;;;3.60;3.07;;;;;;;12.36;100.00;154534.34;5012916;28;20218;-94
2024/04/05 04:20:13;;;;;;;3.63;2.43;;;;;;;12.34;100.00;154527.88;5028076;28;20449;-94
2024/04/05 04:22:39;;;;;;;3.30;2.77;;;;;;;12.37;100.00;154536.91;5035019;28;20258;-95
2024/04/05 04:25:06;;;;;;;3.40;2.70;;;;;;;12.37;100.00;154535.59;5020143;28;20440;-96
2024/04/05 04:27:32;;;;;;;3.53;2.70;;;;;;;12.33;100.00;154526.56;5013720;28;20231;-94
2024/04/05 04:29:58;;;;;;;3.60;2.77;;;;;;;12.32;100.00;154522.66;5019245;28;20483;-96
2024/04/05 04:32:25;;;;;;;3.00;2.70;;;;;;;12.31;100.00;154521.34;5032121;28;20301;-95
2024/04/05 04:34:52;;;;;;;6.30;2.60;;;;;;;12.29;100.00;154514.84;5032943;28;20448;-94
2024/04/05 04:37:20;;;;;;;3.23;2.50;;;;;;;12.25;100.00;154505.81;5033207;28;20440;-94
2024/04/05 04:39:46;;;;;;;4.10;3.00;;;;;;;12.25;100.00;154504.50;5032045;28;20893;-95
2024/04/05 04:42:12;;;;;;;5.57;2.17;;;;;;;12.20;100.00;154494.13;5032901;28;20432;-93
2024/04/05 04:44:38;;;;;;;3.43;3.03;;;;;;;12.19;100.00;154491.56;5031390;28;20497;-94
2024/04/05 04:47:07;;;;;;;2.60;2.23;;;;;;;12.21;100.00;154496.72;5032552;28;20214;-92
2024/04/05 04:49:35;;;;;;;3.17;2.60;;;;;;;12.20;100.00;154492.84;5032569;28;20927;-93
2024/04/05 04:52:00;;;;;;;4.10;2.60;;;;;;;12.17;100.00;154486.38;5032397;28;20524;-93
2024/04/05 04:54:28;;;;;;;3.13;2.40;;;;;;;12.16;100.00;154483.78;5032755;28;20545;-94
2024/04/05 04:56:54;;;;;;;4.07;2.73;;;;;;;12.15;100.00;154481.16;5032562;28;20203;-94
2024/04/05 04:59:23;;;;;;;3.27;2.83;;;;;;;12.13;100.00;154475.97;5024149;28;20476;-93
2024/04/05 05:01:48;;;;;;;3.30;2.87;;;;;;;12.12;100.00;154473.41;5012878;28;20669;-94
2024/04/05 05:04:15;;;;;;;3.73;3.20;;;;;;;12.10;100.00;154466.88;5025801;28;20466;-93
2024/04/05 05:06:42;;;;;;;3.50;3.20;;;;;;;12.06;100.00;154457.84;5046227;28;20455;-94
2024/04/05 05:09:09;;;;;;;3.30;2.73;;;;;;;12.08;100.00;154463.03;5041937;28;20491;-93
2024/04/05 05:11:34;;;;;;;4.37;2.87;;;;;;;12.09;100.00;154464.31;5025660;28;20846;-94
2024/04/05 05:14:01;;;;;;;3.90;3.23;;;;;;;12.04;100.00;154452.69;5032051;28;20463;-94
2024/04/05 05:16:26;;;;;;;4.13;3.70;;;;;;;12.01;100.00;154444.91;5032419;28;20745;-94
2024/04/05 05:18:53;;;;;;;4.90;4.07;;;;;;;11.99;100.00;154439.66;5030569;28;20439;-94
2024/04/05 05:21:19;;;;;;;4.80;3.33;;;;;;;11.97;100.00;154434.50;5013172;28;20206;-94
2024/04/05 05:23:47;;;;;;;5.27;3.97;;;;;;;11.98;100.00;154437.09;5029555;28;20498;-95
2024/04/05 05:26:12;;;;;;;5.17;4.47;;;;;;;11.97;100.00;154433.19;5031249;28;20642;-95
2024/04/05 05:28:39;;;;;;;5.80;4.17;;;;;;;11.97;100.00;154434.50;5028744;28;21050;-94
2024/04/05 05:31:05;;;;;;;4.53;3.90;;;;;;;11.97;100.00;154434.50;5012427;28;20234;-94
2024/04/05 05:33:31;;;;;;;4.70;3.97;;;;;;;12.01;100.00;154444.91;5030697;28;20455;-94
2024/04/05 05:35:57;;;;;;;5.97;5.10;;;;;;;12.02;100.00;154446.19;5022116;28;21157;-94
2024/04/05 05:38:24;;;;;;;5.00;4.50;;;;;;;12.03;100.00;154450.06;5027063;28;20451;-93
2024/04/05 05:40:51;;;;;;;6.90;4.90;;;;;;;12.05;100.00;154453.94;5031474;28;20205;-95
2024/04/05 05:43:17;;;;;;;5.10;4.40;;;;;;;12.05;100.00;154455.25;5030674;28;20509;-94
2024/04/05 05:45:42;;;;;;;5.87;5.10;;;;;;;12.07;100.00;154460.41;5030655;28;20521;-92
2024/04/05 05:48:09;;;;;;;8.30;5.13;;;;;;;12.10;100.00;154468.19;5027527;28;20515;-93
2024/04/05 05:50:35;;;;;;;6.53;5.50;;;;;;;12.15;100.00;154481.16;5012254;28;20674;-93
2024/04/05 05:53:02;;;;;;;6.80;5.00;;;;;;;12.21;100.00;154495.41;5011963;28;20467;-93
2024/04/05 05:55:28;;;;;;;5.17;4.43;;;;;;;12.27;100.00;154509.69;5029509;28;20219;-92
2024/04/05 05:57:57;;;;;;;4.90;4.40;;;;;;;12.37;100.00;154535.59;5029490;28;20478;-92
2024/04/05 06:00:22;;;;;;;6.60;4.10;;;;;;;12.53;100.00;154577.09;5027201;28;20242;-92
2024/04/05 06:02:49;;;;;;;3.90;3.57;;;;;;;12.76;100.00;154636.81;5028812;28;20554;-91
2024/04/05 06:05:15;;;;;;;7.30;4.73;;;;;;;13.02;100.00;154704.25;5024984;28;20592;-92
2024/04/05 06:07:42;;;;;;;4.67;3.73;;;;;;;13.32;100.00;154780.81;5027496;28;20439;-90
2024/04/05 06:10:07;;;;;;;7.37;4.63;;;;;;;13.61;100.00;154854.81;5027708;28;20482;-90
2024/04/05 06:12:38;;;;;;;4.37;3.97;;;;;;;13.88;100.00;154924.88;5026418;28;20456;-90
2024/04/05 06:15:07;;;;;;;4.47;4.07;;;;;;;14.11;100.00;154984.59;5007307;28;20234;-90
2024/04/05 06:17:35;;;;;;;4.27;3.87;;;;;;;14.32;100.00;155037.91;5025396;28;20443;-90
2024/04/05 06:20:01;;;;;;;4.17;3.77;;;;;;;14.47;100.00;155076.84;5024623;28;20459;-92
2024/04/05 06:22:28;;;;;;;4.00;3.53;;;;;;;14.59;100.00;155108.00;5009943;28;20460;-91
2024/04/05 06:24:54;;;;;;;4.70;3.90;;;;;;;14.71;100.00;155137.91;5027508;28;20463;-92
2024/04/05 06:27:21;;;;;;;4.30;3.83;;;;;;;14.81;100.00;155163.88;5022834;28;20797;-91
2024/04/05 06:29:48;;;;;;;5.00;3.50;;;;;;;14.89;100.00;155184.66;5026777;28;20899;-91
2024/04/05 06:32:16;;;;;;;4.73;3.50;;;;;;;15.06;100.00;155230.09;5029134;28;20443;-91
2024/04/05 06:34:42;;;;;;;4.30;3.90;;;;;;;15.27;100.00;155284.69;5030563;28;20513;-91
2024/04/05 06:37:08;;;;;;;4.33;3.20;;;;;;;15.30;100.00;155291.22;5033111;28;20447;-92
2024/04/05 06:39:34;;;;;;;3.70;3.40;;;;;;;15.34;100.00;155300.28;5028400;28;20514;-92
2024/04/05 06:42:01;;;;;;;5.83;2.87;;;;;;;15.54;100.00;155353.63;5011813;28;20475;-91
2024/04/05 06:44:31;;;;;;;3.87;3.07;;;;;;;15.79;100.00;155417.34;5034721;28;20207;-89
2024/04/05 06:46:58;;;;;;;5.37;2.60;;;;;;;15.94;98.33;155456.31;5017794;28;20454;-90
2024/04/05 06:49:25;;;;;;;3.03;2.43;;;;;;;16.02;97.25;155475.88;5033924;28;20472;-92
2024/04/05 06:51:52;;;;;;;2.50;1.97;;;;;;;16.18;96.38;155517.44;5029282;28;20454;-90
2024/04/05 06:54:17;;;;;;;3.10;2.33;;;;;;;16.48;95.63;155594.16;5029633;28;20451;-90
2024/04/05 06:56:44;;;;;;;2.70;2.10;;;;;;;16.71;94.36;155654.03;5031235;28;20461;-90
2024/04/05 06:59:09;;;;;;;3.20;2.13;;;;;;;16.84;92.58;155689.19;5030224;28;20203;-92
2024/04/05 07:01:36;;;;;;;2.90;2.07;;;;;;;16.81;90.61;155681.38;5032636;28;20560;-92
2024/04/05 07:04:02;;;;;;;3.13;2.83;;;;;;;16.73;89.19;155660.53;5025115;28;20202;-91
2024/04/05 07:06:32;;;;;;;4.00;2.73;;;;;;;16.55;88.31;155613.72;5014684;28;20459;-92
2024/04/05 07:08:58;;;;;;;4.83;2.40;;;;;;;16.44;87.06;155585.09;5032610;28;20490;-92
2024/04/05 07:11:24;;;;;;;4.30;2.60;;;;;;;16.36;88.80;155564.28;5031647;28;20443;-92
2024/04/05 07:13:50;;;;;;;5.47;2.67;;;;;;;16.38;90.24;155570.78;5029430;28;20486;-93
2024/04/05 07:16:17;;;;;;;3.20;2.50;;;;;;;16.40;91.00;155574.66;5005979;28;20927;-92
2024/04/05 07:18:43;;;;;;;2.70;2.03;;;;;;;16.41;89.32;155577.28;5032063;28;20225;-92
2024/04/05 07:21:09;;;;;;;3.47;2.70;;;;;;;16.41;88.73;155577.28;5012737;28;20456;-91
2024/04/05 07:23:36;;;;;;;2.93;2.60;;;;;;;16.42;89.85;155579.88;5029642;28;20897;-91
2024/04/05 07:26:03;;;;;;;3.13;2.80;;;;;;;16.44;89.85;155585.09;5029686;28;20491;-91
2024/04/05 07:28:28;;;;;;;2.47;2.27;;;;;;;16.48;90.61;155595.47;5031071;28;20476;-92
2024/04/05 07:30:55;;;;;;;3.57;2.53;;;;;;;16.48;89.90;155595.47;5012938;28;20476;-92
2024/04/05 07:33:20;;;;;;;2.90;2.30;;;;;;;16.44;90.12;155586.38;5031448;28;20234;-91
2024/04/05 07:35:47;;;;;;;3.27;2.60;;;;;;;16.48;90.41;155595.47;5012122;28;21052;-91
2024/04/05 07:38:12;;;;;;;3.20;2.43;;;;;;;16.65;90.91;155639.78;5031326;28;20244;-93
2024/04/05 07:40:40;;;;;;;2.73;2.37;;;;;;;16.70;89.63;155652.78;5029863;28;20843;-92
2024/04/05 07:43:06;;;;;;;2.50;2.00;;;;;;;16.74;89.41;155661.88;5030025;28;20257;-91
2024/04/05 07:45:33;;;;;;;2.83;2.07;;;;;;;16.73;87.98;155660.53;5030749;28;20978;-92
2024/04/05 07:47:58;;;;;;;3.40;2.30;;;;;;;16.81;87.37;155681.38;4996319;28;20564;-93
2024/04/05 07:50:25;;;;;;;3.60;2.07;;;;;;;16.91;87.48;155707.44;5013105;28;20475;-91
2024/04/05 07:52:50;;;;;;;3.60;2.40;;;;;;;17.01;87.98;155732.13;5012472;28;20569;-92
2024/04/05 07:55:17;;;;;;;2.63;2.20;;;;;;;17.13;86.28;155762.06;5013789;28;20474;-93
2024/04/05 07:57:45;;;;;;;3.50;2.40;;;;;;;17.35;88.29;155819.31;5030969;28;20225;-91
2024/04/05 08:00:14;;;;;;;3.73;2.00;;;;;;;17.61;87.39;155888.34;5026891;28;20459;-92
2024/04/05 08:02:44;;;;;;;3.57;1.83;;;;;;;17.81;83.30;155939.16;5028590;28;20455;-92
2024/04/05 08:05:11;;;;;;;3.60;1.97;;;;;;;18.14;84.02;156025.06;5028224;28;20448;-92
2024/04/05 08:07:36;;;;;;;2.60;2.03;;;;;;;18.39;82.39;156087.59;5028514;28;20480;-92
2024/04/05 08:10:03;;;;;;;2.73;1.93;;;;;;;18.64;79.12;156152.75;5030084;28;20893;-93
2024/04/05 08:12:29;;;;;;;2.53;1.80;;;;;;;18.85;78.39;156207.47;5022693;28;20230;-92
2024/04/05 08:14:57;;;;;;;2.97;1.53;;;;;;;19.01;75.07;156249.16;5030605;28;20892;-93
2024/04/05 08:17:22;;;;;;;2.00;1.80;;;;;;;19.19;74.50;156294.81;5028359;28;20210;-94
2024/04/05 08:19:50;;;;;;;4.20;1.90;;;;;;;19.09;72.84;156270.00;5011884;28;20467;-92
2024/04/05 08:22:16;;;;;;;3.47;2.17;;;;;;;19.24;75.82;156309.13;5028194;28;20215;-93
2024/04/05 08:24:43;;;;;;;6.80;1.97;;;;;;;19.38;74.22;156345.66;5013442;28;21034;-92
2024/04/05 08:27:09;;;;;;;3.07;1.70;;;;;;;19.49;72.87;156371.72;5040884;28;20269;-90
2024/04/05 08:29:37;;;;;;;3.37;2.00;;;;;;;19.67;73.52;156418.69;5018607;28;20586;-90
2024/04/05 08:32:05;;;;;;;2.80;1.83;;;;;;;19.84;71.81;156463.00;5028271;28;20452;-90
2024/04/05 08:34:32;;;;;;;2.50;1.93;;;;;;;19.97;70.34;156496.88;5009287;28;20468;-89
2024/04/05 08:36:58;;;;;;;2.40;1.73;;;;;;;20.00;69.23;156506.03;5009575;28;20460;-91
2024/04/05 08:39:25;;;;;;;2.73;1.80;;;;;;;20.11;68.11;156533.41;5028915;28;20545;-91
2024/04/05 08:41:51;;;;;;;2.20;1.70;;;;;;;20.20;67.72;156555.59;5025801;28;20468;-91
2024/04/05 08:44:18;;;;;;;4.23;1.70;;;;;;;20.26;67.36;156571.25;5027735;28;20459;-91
2024/04/05 08:46:43;;;;;;;3.07;1.70;;;;;;;20.19;67.35;156554.28;5025320;28;20474;-91
2024/04/05 08:49:12;;;;;;;2.37;1.50;;;;;;;20.14;67.03;156541.25;5009132;28;20487;-91
2024/04/05 08:51:39;;;;;;;2.90;1.77;;;;;;;20.13;67.53;156538.63;5026133;28;20206;-91
2024/04/05 08:54:05;;;;;;;2.03;1.83;;;;;;;20.12;66.26;156536.00;5026048;28;20513;-91
2024/04/05 08:56:31;;;;;;;4.47;2.20;;;;;;;20.19;67.88;156554.28;5027403;28;20568;-91
2024/04/05 08:58:59;;;;;;;4.30;1.87;;;;;;;20.28;66.32;156577.78;5027336;28;21239;-90
2024/04/05 09:01:25;;;;;;;2.40;1.77;;;;;;;20.32;69.25;156588.25;5025692;28;20210;-89
2024/04/05 09:03:52;;;;;;;3.20;1.90;;;;;;;20.28;66.87;156577.78;5025507;28;20530;-90
2024/04/05 09:06:20;;;;;;;2.10;1.70;;;;;;;20.18;64.77;156551.66;5026906;28;20206;-90
2024/04/05 09:08:48;;;;;;;5.50;1.70;;;;;;;20.14;63.39;156541.25;5027672;28;20493;-90
2024/04/05 09:11:19;;;;;;;2.33;1.37;;;;;;;20.11;63.39;156533.41;5008716;28;20530;-91
2024/04/05 09:13:55;;;;;;;3.47;1.80;;;;;;;20.15;65.38;156542.56;5009670;28;20451;-91
2024/04/05 09:16:22;;;;;;;5.20;1.63;;;;;;;20.18;63.57;156551.66;5027782;28;20459;-91
2024/04/05 09:18:49;;;;;;;1.90;1.67;;;;;;;20.25;63.58;156570.00;5009127;28;20837;-90
2024/04/05 09:21:15;;;;;;;1.93;1.37;;;;;;;20.28;64.45;156577.78;5027273;28;20534;-89
2024/04/05 09:23:46;;;;;;;2.63;1.93;;;;;;;20.37;66.64;156601.28;5025749;28;20454;-90
2024/04/05 09:26:18;;;;;;;2.63;1.73;;;;;;;20.43;64.26;156616.94;5023910;28;20209;-90
2024/04/05 09:28:46;;;;;;;2.00;1.47;;;;;;;20.30;62.01;156581.72;5026872;28;20490;-90
2024/04/05 09:31:18;;;;;;;2.10;1.47;;;;;;;20.31;64.29;156585.63;5025358;28;20471;-90
2024/04/05 09:33:45;;;;;;;3.27;1.63;;;;;;;20.41;63.79;156611.69;5023883;28;20467;-90
2024/04/05 09:36:13;;;;;;;2.50;1.80;;;;;;;20.47;64.36;156626.03;5029284;28;20534;-91
2024/04/05 09:38:40;;;;;;;2.13;1.60;;;;;;;20.41;65.08;156611.69;5008783;28;20444;-91
2024/04/05 09:41:07;;;;;;;3.80;1.50;;;;;;;20.41;63.21;156610.44;5027629;28;20455;-89
2024/04/05 09:43:35;;;;;;;1.67;1.33;;;;;;;20.44;65.81;156618.22;5024728;28;20467;-89
2024/04/05 09:46:03;;;;;;;3.43;1.60;;;;;;;20.41;64.41;156610.44;5026643;28;20475;-90
2024/04/05 09:48:32;;;;;;;2.40;1.40;;;;;;;20.38;64.03;156603.91;5027843;28;20495;-89
2024/04/05 09:51:00;;;;;;;1.87;1.40;;;;;;;20.49;64.57;156631.28;5009430;28;21080;-90
2024/04/05 09:53:28;;;;;;;2.50;1.40;;;;;;;20.52;61.89;156640.41;5027518;28;20450;-90
2024/04/05 09:55:57;;;;;;;3.40;1.60;;;;;;;20.60;62.29;156659.94;5024642;28;20451;-89
2024/04/05 09:58:26;;;;;;;2.97;1.80;;;;;;;20.66;65.11;156675.63;5027243;28;20533;-89
2024/04/05 10:00:52;;;;;;;5.17;1.33;;;;;;;20.61;61.64;156662.59;5008484;28;20485;-89
2024/04/05 10:03:19;;;;;;;2.80;1.53;;;;;;;20.71;61.46;156688.66;5009822;28;20582;-88
2024/04/05 10:05:45;;;;;;;1.90;1.30;;;;;;;20.81;61.17;156713.47;5032557;28;20461;-87
2024/04/05 10:08:15;;;;;;;3.20;1.40;;;;;;;20.87;61.75;156730.41;5038913;28;20542;-89
2024/04/05 10:10:40;;;;;;;1.50;1.20;;;;;;;20.94;60.65;156748.69;5030819;28;20450;-89
2024/04/05 10:13:12;;;;;;;2.40;1.30;;;;;;;20.96;59.28;156752.63;5030192;28;20459;-89
2024/04/05 10:15:39;;;;;;;2.80;1.17;;;;;;;20.97;58.86;156755.25;5029054;28;20214;-89
2024/04/05 10:18:06;;;;;;;1.50;1.10;;;;;;;21.00;59.74;156764.34;5029090;28;20448;-89
2024/04/05 10:20:34;;;;;;;4.13;1.63;;;;;;;20.98;60.85;156759.13;5010881;28;20451;-89
2024/04/05 10:23:01;;;;;;;2.90;1.60;;;;;;;21.04;62.82;156773.50;5010959;28;20501;-89
2024/04/05 10:25:26;;;;;;;1.97;1.20;;;;;;;21.01;65.54;156766.97;5012452;28;20463;-88
2024/04/05 10:27:54;;;;;;;2.10;1.40;;;;;;;21.03;56.53;156770.88;5011990;28;20455;-88
2024/04/05 10:30:21;;;;;;;2.27;1.30;;;;;;;21.18;58.09;156810.09;5025337;28;20238;-88
2024/04/05 10:32:57;;;;;;;5.63;1.13;;;;;;;21.20;58.35;156816.63;5026117;28;20867;-88
2024/04/05 10:35:23;;;;;;;2.13;1.13;;;;;;;21.18;58.54;156811.38;5012580;28;20509;-89
2024/04/05 10:37:57;;;;;;;1.60;0.87;;;;;;;21.19;52.38;156812.69;5011051;28;20448;-88
2024/04/05 10:40:23;;;;;;;1.50;0.90;;;;;;;21.27;51.57;156833.56;5026022;28;20467;-88
2024/04/05 10:42:49;;;;;;;1.43;1.00;;;;;;;21.37;52.90;156858.34;5026802;28;20452;-88
2024/04/05 10:45:16;;;;;;;1.50;1.10;;;;;;;21.40;51.25;156867.50;5011357;28;20211;-88
2024/04/05 10:47:52;;;;;;;2.10;1.17;;;;;;;21.43;52.50;156875.34;5011417;28;20559;-89
2024/04/05 10:50:19;;;;;;;2.00;0.90;;;;;;;21.43;56.91;156875.34;5011256;28;20595;-89
2024/04/05 10:52:50;;;;;;;2.37;1.27;;;;;;;21.33;55.80;156849.25;5025965;28;20479;-88
2024/04/05 10:55:16;;;;;;;1.30;0.87;;;;;;;21.26;56.77;156830.94;5009167;28;20480;-88
2024/04/05 10:57:44;;;;;;;3.83;1.20;;;;;;;21.24;57.70;156827.03;5025923;28;21128;-88
2024/04/05 11:00:11;;;;;;;2.30;1.33;;;;;;;21.31;57.59;156844.03;5024772;28;20203;-88
2024/04/05 11:02:39;;;;;;;1.97;1.30;;;;;;;21.31;56.02;156844.03;5009673;28;20449;-89
2024/04/05 11:05:08;;;;;;;2.10;0.90;;;;;;;21.33;55.56;156849.25;5008132;28;20463;-88
2024/04/05 11:07:36;;;;;;;5.97;1.30;;;;;;;21.40;58.17;156867.50;5024578;28;20471;-87
2024/04/05 11:10:12;;;;;;;1.43;1.10;;;;;;;21.35;56.70;156854.44;5010799;28;20547;-88
2024/04/05 11:12:39;;;;;;;1.70;1.10;;;;;;;21.36;53.15;156855.75;5008485;28;20477;-88
2024/04/05 11:15:05;;;;;;;1.60;1.00;;;;;;;21.47;51.70;156885.75;5009637;28;20453;-88
2024/04/05 11:17:35;;;;;;;2.07;1.07;;;;;;;21.58;53.03;156913.16;5008060;28;20902;-87